Time;durP1;ratioP1;P1;durP2;ratioP2;P2;SDS_P1;SDS_P2;PMS_P1;PMS_P2;Temp;Humidity;BMP_temperature;BMP_pressure;BME280_temperature;BME280_humidity;BME280_pressure;Samples;Min_cycle;Max_cycle;Signal;HPM_P1;HPM_P2
2022/08/07 00:01:18;;;;;;;0.10;0.10;;;;;;;;;;5068445;28;20132;-86
2022/08/07 00:03:45;;;;;;;0.10;0.10;;;;;;;;;;5049096;28;20036;-86
2022/08/07 00:06:11;;;;;;;0.20;0.20;;;;;;;;;;5039481;28;20043;-87
2022/08/07 00:08:37;;;;;;;0.08;0.08;;;;;;;;;;5055362;28;20233;-86
2022/08/07 00:11:04;;;;;;;0.10;0.10;;;;;;;;;;5053121;28;20059;-85
2022/08/07 00:13:30;;;;;;;0.10;0.10;;;;;;;;;;5062384;28;20094;-85
2022/08/07 00:15:56;;;;;;;0.10;0.10;;;;;;;;;;5045221;28;20135;-86
2022/08/07 00:18:23;;;;;;;0.10;0.10;;;;;;;;;;5053395;28;20519;-85
2022/08/07 00:20:50;;;;;;;0.10;0.10;;;;;;;;;;5039616;28;20037;-86
2022/08/07 00:23:16;;;;;;;0.20;0.20;;;;;;;;;;5069230;28;20497;-87
2022/08/07 00:25:42;;;;;;;0.10;0.10;;;;;;;;;;5054152;28;20029;-86
2022/08/07 00:28:08;;;;;;;0.20;0.20;;;;;;;;;;5070876;28;20115;-87
2022/08/07 00:30:34;;;;;;;0.10;0.10;;;;;;;;;;5052630;28;20115;-86
2022/08/07 00:33:00;;;;;;;0.20;0.20;;;;;;;;;;5048611;28;20071;-85
2022/08/07 00:35:27;;;;;;;0.20;0.20;;;;;;;;;;5051615;28;20199;-86
2022/08/07 00:37:54;;;;;;;0.10;0.10;;;;;;;;;;5049638;28;20087;-86
2022/08/07 00:40:20;;;;;;;0.10;0.10;;;;;;;;;;5062502;28;20067;-86
2022/08/07 00:42:46;;;;;;;0.10;0.10;;;;;;;;;;5050097;28;20051;-87
2022/08/07 00:45:13;;;;;;;0.10;0.10;;;;;;;;;;5033678;28;20098;-86
2022/08/07 00:47:39;;;;;;;0.20;0.20;;;;;;;;;;5049373;28;20039;-87
2022/08/07 00:50:06;;;;;;;0.15;0.15;;;;;;;;;;5052867;28;20423;-85
2022/08/07 00:52:33;;;;;;;0.10;0.10;;;;;;;;;;5046823;28;20487;-86
2022/08/07 00:54:59;;;;;;;0.10;0.10;;;;;;;;;;5051313;28;20405;-85
2022/08/07 00:57:26;;;;;;;0.10;0.10;;;;;;;;;;5051462;28;20036;-87
2022/08/07 00:59:52;;;;;;;0.20;0.20;;;;;;;;;;5050081;28;20397;-84
2022/08/07 01:02:18;;;;;;;0.10;0.10;;;;;;;;;;5050975;28;20038;-88
2022/08/07 01:04:44;;;;;;;0.10;0.10;;;;;;;;;;5051365;28;20509;-86
2022/08/07 01:07:11;;;;;;;0.10;0.10;;;;;;;;;;5047306;28;20068;-85
2022/08/07 01:09:37;;;;;;;0.17;0.17;;;;;;;;;;5055349;28;20040;-86
2022/08/07 01:12:03;;;;;;;0.20;0.20;;;;;;;;;;5052364;28;20033;-88
2022/08/07 01:14:30;;;;;;;0.10;0.10;;;;;;;;;;5049759;28;20047;-87
2022/08/07 01:16:56;;;;;;;0.10;0.10;;;;;;;;;;5056042;28;20044;-86
2022/08/07 01:19:22;;;;;;;0.40;0.40;;;;;;;;;;5069436;28;20036;-86
2022/08/07 01:21:50;;;;;;;0.10;0.10;;;;;;;;;;5057385;28;20047;-86
2022/08/07 01:24:18;;;;;;;0.10;0.10;;;;;;;;;;5045033;28;20097;-85
2022/08/07 01:26:44;;;;;;;0.10;0.10;;;;;;;;;;5050934;28;20397;-85
2022/08/07 01:29:10;;;;;;;0.20;0.20;;;;;;;;;;5057285;28;20041;-86
2022/08/07 01:31:37;;;;;;;0.38;0.38;;;;;;;;;;5062257;28;20071;-86
2022/08/07 01:34:04;;;;;;;0.20;0.20;;;;;;;;;;5057360;28;20090;-86
2022/08/07 01:36:31;;;;;;;0.20;0.20;;;;;;;;;;5059434;28;20443;-85
2022/08/07 01:38:59;;;;;;;0.20;0.20;;;;;;;;;;5058432;28;20106;-86
2022/08/07 01:41:26;;;;;;;0.20;0.20;;;;;;;;;;5050261;28;20044;-85
2022/08/07 01:43:55;;;;;;;0.10;0.10;;;;;;;;;;5060547;28;20047;-85
2022/08/07 01:46:21;;;;;;;0.20;0.20;;;;;;;;;;5054743;28;20078;-86
2022/08/07 01:49:04;;;;;;;0.20;0.20;;;;;;;;;;5048900;28;20043;-85
2022/08/07 01:51:31;;;;;;;0.20;0.20;;;;;;;;;;5053197;28;20450;-86
2022/08/07 01:53:58;;;;;;;0.10;0.10;;;;;;;;;;5077976;28;20524;-85
2022/08/07 01:56:31;;;;;;;0.20;0.20;;;;;;;;;;5045307;28;20475;-85
2022/08/07 01:59:14;;;;;;;0.20;0.20;;;;;;;;;;5059579;28;20512;-86
2022/08/07 02:01:43;;;;;;;0.10;0.10;;;;;;;;;;5063769;28;20098;-85
2022/08/07 02:04:13;;;;;;;0.25;0.25;;;;;;;;;;5076050;28;20119;-86
2022/08/07 02:06:40;;;;;;;0.20;0.20;;;;;;;;;;5061991;28;20047;-87
2022/08/07 02:09:08;;;;;;;0.10;0.10;;;;;;;;;;5054518;28;20048;-86
2022/08/07 02:11:36;;;;;;;0.10;0.10;;;;;;;;;;5078583;28;20048;-86
2022/08/07 02:14:03;;;;;;;0.10;0.10;;;;;;;;;;5061933;28;20051;-87
2022/08/07 02:16:30;;;;;;;0.20;0.20;;;;;;;;;;5061775;28;20051;-85
2022/08/07 02:18:56;;;;;;;0.10;0.10;;;;;;;;;;5061575;28;20044;-86
2022/08/07 02:21:24;;;;;;;0.10;0.10;;;;;;;;;;5041801;28;20059;-86
2022/08/07 02:23:51;;;;;;;0.20;0.20;;;;;;;;;;5052877;28;20435;-87
2022/08/07 02:26:18;;;;;;;0.30;0.30;;;;;;;;;;5078408;28;20115;-87
2022/08/07 02:28:45;;;;;;;0.10;0.10;;;;;;;;;;5061783;28;20032;-86
2022/08/07 02:31:11;;;;;;;0.20;0.20;;;;;;;;;;5061412;28;20050;-85
2022/08/07 02:33:38;;;;;;;0.10;0.10;;;;;;;;;;5073302;28;20049;-86
2022/08/07 02:36:05;;;;;;;0.10;0.10;;;;;;;;;;5058087;28;20048;-86
2022/08/07 02:38:34;;;;;;;0.10;0.10;;;;;;;;;;5065959;28;20040;-86
2022/08/07 02:41:02;;;;;;;0.10;0.10;;;;;;;;;;5057970;28;20040;-86
2022/08/07 02:43:29;;;;;;;0.20;0.20;;;;;;;;;;5057214;28;20081;-86
2022/08/07 02:45:57;;;;;;;0.20;0.20;;;;;;;;;;5060301;28;20048;-86
2022/08/07 02:48:27;;;;;;;0.10;0.10;;;;;;;;;;5060502;28;20040;-86
2022/08/07 02:50:54;;;;;;;0.10;0.10;;;;;;;;;;5056601;28;20497;-86
2022/08/07 02:53:26;;;;;;;0.20;0.20;;;;;;;;;;5054214;28;20511;-85
2022/08/07 02:55:52;;;;;;;0.30;0.30;;;;;;;;;;5060500;28;20496;-84
2022/08/07 02:58:20;;;;;;;0.20;0.20;;;;;;;;;;5057738;28;20078;-85
2022/08/07 03:00:48;;;;;;;0.10;0.10;;;;;;;;;;5059162;28;20074;-85
2022/08/07 03:03:15;;;;;;;0.10;0.10;;;;;;;;;;5067162;28;20053;-85
2022/08/07 03:05:43;;;;;;;0.10;0.10;;;;;;;;;;5056709;28;20037;-85
2022/08/07 03:08:09;;;;;;;0.10;0.10;;;;;;;;;;5040821;28;20041;-86
2022/08/07 03:10:36;;;;;;;0.30;0.30;;;;;;;;;;5060739;28;20041;-84
2022/08/07 03:13:02;;;;;;;0.20;0.20;;;;;;;;;;5060744;28;20047;-86
2022/08/07 03:15:29;;;;;;;0.10;0.10;;;;;;;;;;5059967;28;20192;-85
2022/08/07 03:17:55;;;;;;;0.10;0.10;;;;;;;;;;5060101;28;20040;-86
2022/08/07 03:20:22;;;;;;;0.20;0.20;;;;;;;;;;5060389;28;20035;-86
2022/08/07 03:22:50;;;;;;;0.10;0.10;;;;;;;;;;5060096;28;20409;-86
2022/08/07 03:25:17;;;;;;;0.10;0.10;;;;;;;;;;5059990;28;20036;-85
2022/08/07 03:27:45;;;;;;;0.17;0.17;;;;;;;;;;5041819;28;20044;-85
2022/08/07 03:30:11;;;;;;;0.10;0.10;;;;;;;;;;5051325;28;20093;-85
2022/08/07 03:32:38;;;;;;;0.20;0.20;;;;;;;;;;5044654;28;20114;-85
2022/08/07 03:35:07;;;;;;;0.20;0.20;;;;;;;;;;5059771;28;20040;-85
2022/08/07 03:37:34;;;;;;;0.20;0.20;;;;;;;;;;5059446;28;20065;-85
2022/08/07 03:40:00;;;;;;;0.20;0.20;;;;;;;;;;5059777;28;20085;-86
2022/08/07 03:42:27;;;;;;;0.10;0.10;;;;;;;;;;5068783;28;20051;-84
2022/08/07 03:44:53;;;;;;;0.10;0.10;;;;;;;;;;5069883;28;20523;-84
2022/08/07 03:47:20;;;;;;;0.10;0.10;;;;;;;;;;5058513;28;20397;-85
2022/08/07 03:49:46;;;;;;;0.10;0.10;;;;;;;;;;5075652;28;20139;-84
2022/08/07 03:52:12;;;;;;;0.10;0.10;;;;;;;;;;5060151;28;20051;-84
2022/08/07 03:54:38;;;;;;;0.10;0.10;;;;;;;;;;5056833;28;20579;-84
2022/08/07 03:57:05;;;;;;;0.20;0.20;;;;;;;;;;5055377;28;20515;-85
2022/08/07 03:59:34;;;;;;;0.20;0.20;;;;;;;;;;5060078;28;20036;-86
2022/08/07 04:02:01;;;;;;;0.10;0.10;;;;;;;;;;5069566;28;20464;-86
2022/08/07 04:04:27;;;;;;;0.20;0.20;;;;;;;;;;5051583;28;20050;-85
2022/08/07 04:06:53;;;;;;;0.30;0.30;;;;;;;;;;5076513;28;20093;-85
2022/08/07 04:09:19;;;;;;;0.30;0.30;;;;;;;;;;5044155;28;20045;-85
2022/08/07 04:11:48;;;;;;;0.20;0.20;;;;;;;;;;5070649;28;20044;-85
2022/08/07 04:14:15;;;;;;;0.10;0.10;;;;;;;;;;5076706;28;20044;-87
2022/08/07 04:16:41;;;;;;;0.20;0.20;;;;;;;;;;5056736;28;20041;-86
2022/08/07 04:19:07;;;;;;;0.20;0.20;;;;;;;;;;5041001;28;20044;-86
2022/08/07 04:21:33;;;;;;;0.10;0.10;;;;;;;;;;5076609;28;20044;-85
2022/08/07 04:24:00;;;;;;;0.20;0.20;;;;;;;;;;5059857;28;20040;-86
2022/08/07 04:26:26;;;;;;;0.30;0.30;;;;;;;;;;5075906;28;20086;-86
2022/08/07 04:28:52;;;;;;;0.15;0.15;;;;;;;;;;5064547;28;20045;-85
2022/08/07 04:31:18;;;;;;;0.10;0.10;;;;;;;;;;5058228;28;20558;-86
2022/08/07 04:33:45;;;;;;;0.20;0.20;;;;;;;;;;5056193;28;20063;-85
2022/08/07 04:36:11;;;;;;;0.20;0.20;;;;;;;;;;5055862;28;20387;-85
2022/08/07 04:38:38;;;;;;;0.17;0.17;;;;;;;;;;5056835;28;20097;-85
2022/08/07 04:41:04;;;;;;;0.30;0.30;;;;;;;;;;5059525;28;20047;-84
2022/08/07 04:43:32;;;;;;;0.20;0.20;;;;;;;;;;5039602;28;20602;-85
2022/08/07 04:46:01;;;;;;;0.10;0.10;;;;;;;;;;5063278;28;20076;-85
2022/08/07 04:48:44;;;;;;;0.20;0.20;;;;;;;;;;5059052;28;20048;-85
2022/08/07 04:51:19;;;;;;;0.10;0.10;;;;;;;;;;5055875;28;20046;-83
2022/08/07 04:53:56;;;;;;;0.20;0.20;;;;;;;;;;5056493;28;20035;-86
2022/08/07 04:56:48;;;;;;;0.22;0.22;;;;;;;;;;5080080;28;20040;-86
2022/08/07 04:59:17;;;;;;;0.20;0.20;;;;;;;;;;5036876;28;20056;-85
2022/08/07 05:01:57;;;;;;;0.20;0.20;;;;;;;;;;5063136;28;20036;-85
2022/08/07 05:04:41;;;;;;;0.20;0.20;;;;;;;;;;5061205;28;20050;-84
2022/08/07 05:07:07;;;;;;;0.30;0.30;;;;;;;;;;5078924;28;20043;-84
2022/08/07 05:09:36;;;;;;;0.20;0.20;;;;;;;;;;5059470;28;20083;-84
2022/08/07 05:12:04;;;;;;;0.10;0.10;;;;;;;;;;5062149;28;20036;-85
2022/08/07 05:14:35;;;;;;;0.10;0.10;;;;;;;;;;5078557;28;20063;-86
2022/08/07 05:17:02;;;;;;;0.10;0.10;;;;;;;;;;5057586;28;20405;-86
2022/08/07 05:19:32;;;;;;;0.10;0.10;;;;;;;;;;5061521;28;20036;-86
2022/08/07 05:21:59;;;;;;;0.10;0.10;;;;;;;;;;5061882;28;20114;-84
2022/08/07 05:24:26;;;;;;;0.10;0.10;;;;;;;;;;5061441;28;20048;-84
2022/08/07 05:26:55;;;;;;;0.20;0.20;;;;;;;;;;5058131;28;20123;-84
2022/08/07 05:29:23;;;;;;;0.20;0.20;;;;;;;;;;5057014;28;20039;-85
2022/08/07 05:31:50;;;;;;;0.10;0.10;;;;;;;;;;5047961;28;20039;-86
2022/08/07 05:34:17;;;;;;;0.10;0.10;;;;;;;;;;5078500;28;20050;-86
2022/08/07 05:36:45;;;;;;;0.15;0.15;;;;;;;;;;5061569;28;20122;-86
2022/08/07 05:39:11;;;;;;;0.25;0.25;;;;;;;;;;5058307;28;20044;-86
2022/08/07 05:41:38;;;;;;;0.10;0.10;;;;;;;;;;5056367;28;20040;-86
2022/08/07 05:44:05;;;;;;;0.10;0.10;;;;;;;;;;5061570;28;20442;-86
2022/08/07 05:46:34;;;;;;;0.13;0.13;;;;;;;;;;5061556;28;20127;-85
2022/08/07 05:49:00;;;;;;;0.10;0.10;;;;;;;;;;5061640;28;20760;-86
2022/08/07 05:51:26;;;;;;;0.10;0.10;;;;;;;;;;5069669;28;20226;-86
2022/08/07 05:53:52;;;;;;;0.17;0.17;;;;;;;;;;5061765;28;20400;-87
2022/08/07 05:56:19;;;;;;;0.00;0.00;;;;;;;;;;5054217;28;20036;-87
2022/08/07 05:58:46;;;;;;;0.15;0.15;;;;;;;;;;5061417;28;20047;-85
2022/08/07 06:01:13;;;;;;;0.10;0.10;;;;;;;;;;5078017;28;20082;-87
2022/08/07 06:03:41;;;;;;;0.10;0.10;;;;;;;;;;5061578;28;20409;-86
2022/08/07 06:06:07;;;;;;;0.15;0.15;;;;;;;;;;5060871;28;20067;-85
2022/08/07 06:08:33;;;;;;;0.10;0.10;;;;;;;;;;5061897;28;20040;-86
2022/08/07 06:11:00;;;;;;;0.10;0.10;;;;;;;;;;5047843;28;20517;-87
2022/08/07 06:13:26;;;;;;;0.10;0.10;;;;;;;;;;5078014;28;20048;-85
2022/08/07 06:15:54;;;;;;;0.10;0.10;;;;;;;;;;5060852;28;20040;-86
2022/08/07 06:18:20;;;;;;;0.20;0.20;;;;;;;;;;5054502;28;20456;-86
2022/08/07 06:20:47;;;;;;;0.15;0.15;;;;;;;;;;5061055;28;20042;-85
2022/08/07 06:23:13;;;;;;;0.10;0.10;;;;;;;;;;5077712;28;20153;-86
2022/08/07 06:25:43;;;;;;;0.10;0.10;;;;;;;;;;5061640;28;20032;-87
2022/08/07 06:28:10;;;;;;;0.10;0.10;;;;;;;;;;5069482;28;20055;-85
2022/08/07 06:30:37;;;;;;;0.15;0.15;;;;;;;;;;5052761;28;20097;-85
2022/08/07 06:33:03;;;;;;;0.13;0.13;;;;;;;;;;5060681;28;20040;-85
2022/08/07 06:35:30;;;;;;;0.13;0.13;;;;;;;;;;5052356;28;20519;-85
2022/08/07 06:37:57;;;;;;;0.13;0.13;;;;;;;;;;5070133;28;20055;-85
2022/08/07 06:40:23;;;;;;;0.10;0.10;;;;;;;;;;5042702;28;20074;-85
2022/08/07 06:42:50;;;;;;;0.15;0.15;;;;;;;;;;5040812;28;20094;-85
2022/08/07 06:45:18;;;;;;;0.17;0.17;;;;;;;;;;5058625;28;20058;-84
2022/08/07 06:47:44;;;;;;;0.10;0.10;;;;;;;;;;5060293;28;20063;-86
2022/08/07 06:50:11;;;;;;;0.10;0.10;;;;;;;;;;5046032;28;20044;-86
2022/08/07 06:52:38;;;;;;;0.05;0.05;;;;;;;;;;5040808;28;20502;-84
2022/08/07 06:55:14;;;;;;;0.08;0.08;;;;;;;;;;5050269;28;20405;-85
2022/08/07 06:57:40;;;;;;;0.00;0.00;;;;;;;;;;5046652;28;20046;-85
2022/08/07 07:00:07;;;;;;;0.20;0.20;;;;;;;;;;5047629;28;20445;-85
2022/08/07 07:02:36;;;;;;;0.10;0.10;;;;;;;;;;5048744;28;20401;-87
2022/08/07 07:05:02;;;;;;;0.10;0.10;;;;;;;;;;5044495;28;20485;-84
2022/08/07 07:07:28;;;;;;;0.10;0.10;;;;;;;;;;5060928;28;20050;-84
2022/08/07 07:09:54;;;;;;;0.10;0.10;;;;;;;;;;5077742;28;20044;-83
2022/08/07 07:12:23;;;;;;;0.05;0.05;;;;;;;;;;5077554;28;20035;-85
2022/08/07 07:15:07;;;;;;;0.10;0.10;;;;;;;;;;5077343;28;20040;-85
2022/08/07 07:17:42;;;;;;;0.10;0.10;;;;;;;;;;5058547;28;20047;-85
2022/08/07 07:20:11;;;;;;;0.13;0.13;;;;;;;;;;5060905;28;20048;-85
2022/08/07 07:22:37;;;;;;;0.10;0.10;;;;;;;;;;5042607;28;20040;-85
2022/08/07 07:25:05;;;;;;;0.10;0.10;;;;;;;;;;5077504;28;20071;-86
2022/08/07 07:27:33;;;;;;;0.10;0.10;;;;;;;;;;5038903;28;20032;-85
2022/08/07 07:30:02;;;;;;;0.10;0.10;;;;;;;;;;5057379;28;20058;-86
2022/08/07 07:32:30;;;;;;;0.00;0.00;;;;;;;;;;5028012;28;20044;-85
2022/08/07 07:34:58;;;;;;;0.10;0.10;;;;;;;;;;5052505;28;20079;-85
2022/08/07 07:37:27;;;;;;;0.10;0.10;;;;;;;;;;5052824;28;20442;-86
2022/08/07 07:39:55;;;;;;;0.10;0.10;;;;;;;;;;5067606;28;20043;-84
2022/08/07 07:42:25;;;;;;;0.00;0.00;;;;;;;;;;5060136;28;20047;-84
2022/08/07 07:44:52;;;;;;;0.10;0.10;;;;;;;;;;5059698;28;20446;-85
2022/08/07 07:47:19;;;;;;;0.10;0.10;;;;;;;;;;5075961;28;20380;-85
2022/08/07 07:49:46;;;;;;;0.00;0.00;;;;;;;;;;5060530;28;20734;-85
2022/08/07 07:52:13;;;;;;;0.00;0.00;;;;;;;;;;5060272;28;20040;-85
2022/08/07 07:54:40;;;;;;;0.10;0.10;;;;;;;;;;5055479;28;20044;-85
2022/08/07 07:57:07;;;;;;;0.05;0.05;;;;;;;;;;5044839;28;20037;-85
2022/08/07 07:59:34;;;;;;;0.08;0.08;;;;;;;;;;5048196;28;20040;-86
2022/08/07 08:02:02;;;;;;;0.10;0.10;;;;;;;;;;5056846;28;20035;-86
2022/08/07 08:04:28;;;;;;;0.20;0.20;;;;;;;;;;5059658;28;20036;-83
2022/08/07 08:06:54;;;;;;;0.00;0.00;;;;;;;;;;5061005;28;20036;-87
2022/08/07 08:09:22;;;;;;;0.08;0.08;;;;;;;;;;5056576;28;20040;-86
2022/08/07 08:11:48;;;;;;;0.10;0.10;;;;;;;;;;5055749;28;20408;-86
2022/08/07 08:14:15;;;;;;;0.10;0.10;;;;;;;;;;5047245;28;20139;-87
2022/08/07 08:16:43;;;;;;;0.00;0.00;;;;;;;;;;5050015;28;20409;-86
2022/08/07 08:19:14;;;;;;;0.10;0.10;;;;;;;;;;5060906;28;20560;-87
2022/08/07 08:27:14;;;;;;;0.00;0.00;;;;;;;;;;5070793;28;20044;-87
2022/08/07 08:29:49;;;;;;;0.10;0.10;;;;;;;;;;5065197;28;20054;-86
2022/08/07 08:32:17;;;;;;;0.03;0.03;;;;;;;;;;5059520;28;20086;-86
2022/08/07 08:34:44;;;;;;;0.00;0.00;;;;;;;;;;5057825;28;20055;-86
2022/08/07 08:37:12;;;;;;;0.10;0.10;;;;;;;;;;5073348;28;20039;-87
2022/08/07 08:39:39;;;;;;;0.10;0.10;;;;;;;;;;5061479;28;20432;-87
2022/08/07 08:42:09;;;;;;;0.10;0.10;;;;;;;;;;5065007;28;20127;-87
2022/08/07 08:44:38;;;;;;;0.00;0.00;;;;;;;;;;5064145;28;20123;-86
2022/08/07 08:47:06;;;;;;;0.00;0.00;;;;;;;;;;5080873;28;20497;-86
2022/08/07 08:50:06;;;;;;;0.10;0.10;;;;;;;;;;5051152;28;20063;-87
2022/08/07 08:55:32;;;;;;;0.17;0.17;;;;;;;;;;5077654;28;20055;-87
2022/08/07 08:58:02;;;;;;;0.10;0.10;;;;;;;;;;5052922;28;20051;-86
2022/08/07 09:00:30;;;;;;;0.10;0.10;;;;;;;;;;5052450;28;20842;-87
2022/08/07 09:03:04;;;;;;;0.20;0.20;;;;;;;;;;5054924;28;20032;-88
2022/08/07 09:05:49;;;;;;;0.00;0.00;;;;;;;;;;5073714;28;20058;-87
2022/08/07 09:08:15;;;;;;;0.20;0.20;;;;;;;;;;5057755;28;20091;-88
2022/08/07 09:10:41;;;;;;;0.10;0.10;;;;;;;;;;5056309;28;20276;-87
2022/08/07 09:13:20;;;;;;;0.10;0.10;;;;;;;;;;5057273;28;20036;-88
2022/08/07 09:15:58;;;;;;;0.10;0.10;;;;;;;;;;5057904;28;20101;-86
2022/08/07 09:18:43;;;;;;;0.10;0.10;;;;;;;;;;5058644;28;20101;-87
2022/08/07 09:21:16;;;;;;;0.00;0.00;;;;;;;;;;5060311;28;20039;-88
2022/08/07 09:24:00;;;;;;;0.08;0.08;;;;;;;;;;5072600;28;20039;-88
2022/08/07 09:26:30;;;;;;;0.10;0.10;;;;;;;;;;5059827;28;20032;-88
2022/08/07 09:29:05;;;;;;;0.10;0.10;;;;;;;;;;5059729;28;20481;-88
2022/08/07 09:31:41;;;;;;;0.10;0.10;;;;;;;;;;5070455;28;20047;-89
2022/08/07 09:34:14;;;;;;;0.00;0.00;;;;;;;;;;5075114;28;20046;-88
2022/08/07 09:36:46;;;;;;;0.10;0.10;;;;;;;;;;5080582;28;20036;-89
2022/08/07 09:39:23;;;;;;;0.00;0.00;;;;;;;;;;5074735;28;20036;-88
2022/08/07 09:42:05;;;;;;;0.00;0.00;;;;;;;;;;5055957;28;20032;-86
2022/08/07 09:44:34;;;;;;;0.00;0.00;;;;;;;;;;5060915;28;20035;-86
2022/08/07 09:47:06;;;;;;;0.00;0.00;;;;;;;;;;5075543;28;20036;-87
2022/08/07 09:49:35;;;;;;;0.10;0.10;;;;;;;;;;5057481;28;20040;-87
2022/08/07 09:52:11;;;;;;;0.00;0.00;;;;;;;;;;5048824;28;20040;-87
2022/08/07 09:54:45;;;;;;;0.10;0.10;;;;;;;;;;5057523;28;20068;-86
2022/08/07 09:57:30;;;;;;;0.00;0.00;;;;;;;;;;5072627;28;20082;-85
2022/08/07 10:00:07;;;;;;;0.00;0.00;;;;;;;;;;5058306;28;20041;-87
2022/08/07 10:02:43;;;;;;;0.00;0.00;;;;;;;;;;5055457;28;20059;-85
2022/08/07 10:05:18;;;;;;;0.00;0.00;;;;;;;;;;5052285;28;20040;-86
2022/08/07 10:08:03;;;;;;;0.10;0.10;;;;;;;;;;5059416;28;20044;-87
2022/08/07 10:10:44;;;;;;;0.10;0.10;;;;;;;;;;5070298;28;20040;-86
2022/08/07 10:13:14;;;;;;;0.10;0.10;;;;;;;;;;5058737;28;20045;-86
2022/08/07 10:16:12;;;;;;;0.10;0.10;;;;;;;;;;5055882;28;20036;-87
2022/08/07 10:18:55;;;;;;;0.00;0.00;;;;;;;;;;5029623;28;20048;-85
2022/08/07 10:21:25;;;;;;;0.10;0.10;;;;;;;;;;5059223;28;20078;-86
2022/08/07 10:24:08;;;;;;;0.00;0.00;;;;;;;;;;5056175;28;20070;-86
2022/08/07 10:26:34;;;;;;;0.10;0.10;;;;;;;;;;5070087;28;20025;-86
2022/08/07 10:29:24;;;;;;;0.20;0.20;;;;;;;;;;5055748;28;20047;-87
2022/08/07 10:32:20;;;;;;;0.10;0.10;;;;;;;;;;5056458;28;20469;-87
2022/08/07 10:35:02;;;;;;;0.00;0.00;;;;;;;;;;5057175;28;20044;-88
2022/08/07 10:37:35;;;;;;;0.00;0.00;;;;;;;;;;5052746;28;20043;-87
2022/08/07 10:40:13;;;;;;;0.10;0.10;;;;;;;;;;5055449;28;20037;-89
2022/08/07 10:42:47;;;;;;;0.00;0.00;;;;;;;;;;5054107;28;20166;-88
2022/08/07 10:45:21;;;;;;;0.00;0.00;;;;;;;;;;5048668;28;20477;-87
2022/08/07 10:48:06;;;;;;;0.10;0.10;;;;;;;;;;5059360;28;20043;-88
2022/08/07 10:51:03;;;;;;;0.10;0.10;;;;;;;;;;5057092;28;20032;-89
2022/08/07 10:53:48;;;;;;;0.00;0.00;;;;;;;;;;5041740;28;20040;-89
2022/08/07 10:56:33;;;;;;;0.10;0.10;;;;;;;;;;5058580;28;20036;-87
2022/08/07 10:58:59;;;;;;;0.00;0.00;;;;;;;;;;5057817;28;20119;-88
2022/08/07 11:01:31;;;;;;;0.03;0.03;;;;;;;;;;5059702;28;20075;-87
2022/08/07 11:04:26;;;;;;;0.10;0.10;;;;;;;;;;5056840;28;20044;-88
2022/08/07 11:06:58;;;;;;;0.00;0.00;;;;;;;;;;5053072;28;20032;-89
2022/08/07 11:09:54;;;;;;;0.00;0.00;;;;;;;;;;5049718;28;20047;-89
2022/08/07 11:12:34;;;;;;;0.00;0.00;;;;;;;;;;5062609;28;20052;-88
2022/08/07 11:15:05;;;;;;;0.10;0.10;;;;;;;;;;5057813;28;20032;-89
2022/08/07 11:17:34;;;;;;;;;;;;;;;;;;5068807;28;20121;-89
2022/08/07 11:20:19;;;;;;;0.10;0.10;;;;;;;;;;5065135;28;19920;-87
2022/08/07 11:22:50;;;;;;;0.10;0.10;;;;;;;;;;5051212;28;20033;-87
2022/08/07 11:25:17;;;;;;;0.00;0.00;;;;;;;;;;5052303;28;20032;-87
2022/08/07 11:27:53;;;;;;;0.00;0.00;;;;;;;;;;5058500;28;20039;-87
2022/08/07 11:30:23;;;;;;;0.00;0.00;;;;;;;;;;5083312;28;20480;-87
2022/08/07 11:33:01;;;;;;;0.15;0.15;;;;;;;;;;5059508;28;20082;-87
2022/08/07 11:35:29;;;;;;;0.08;0.08;;;;;;;;;;5059445;28;20090;-88
2022/08/07 11:38:07;;;;;;;0.10;0.10;;;;;;;;;;5069448;28;20506;-87
2022/08/07 11:40:52;;;;;;;0.10;0.10;;;;;;;;;;5057034;28;20042;-87
2022/08/07 11:43:23;;;;;;;0.00;0.00;;;;;;;;;;5059782;28;20097;-87
2022/08/07 11:46:11;;;;;;;0.10;0.10;;;;;;;;;;5059054;28;20036;-87
2022/08/07 11:48:52;;;;;;;0.00;0.00;;;;;;;;;;5056972;28;20092;-88
2022/08/07 11:51:54;;;;;;;0.00;0.00;;;;;;;;;;5059039;28;21076;-88
2022/08/07 11:54:38;;;;;;;0.03;0.03;;;;;;;;;;5003798;28;20129;-87
2022/08/07 11:57:07;;;;;;;0.08;0.08;;;;;;;;;;5053443;28;20048;-87
2022/08/07 11:59:33;;;;;;;0.00;0.00;;;;;;;;;;5056465;28;20550;-87
2022/08/07 12:02:05;;;;;;;0.10;0.10;;;;;;;;;;5055462;28;20191;-87
2022/08/07 12:04:50;;;;;;;0.10;0.10;;;;;;;;;;5056986;28;20039;-87
2022/08/07 12:07:23;;;;;;;0.00;0.00;;;;;;;;;;5075572;28;20138;-87
2022/08/07 12:09:54;;;;;;;0.08;0.08;;;;;;;;;;5055453;28;20035;-88
2022/08/07 12:12:27;;;;;;;0.10;0.10;;;;;;;;;;5050906;28;20409;-87
2022/08/07 12:15:02;;;;;;;0.10;0.10;;;;;;;;;;5082839;28;20378;-88
2022/08/07 12:17:32;;;;;;;0.00;0.00;;;;;;;;;;5060597;28;20052;-87
2022/08/07 12:19:59;;;;;;;0.52;0.47;;;;;;;;;;5068662;28;20036;-87
2022/08/07 12:22:37;;;;;;;0.00;0.00;;;;;;;;;;5048369;28;20028;-87
2022/08/07 12:28:11;;;;;;;0.10;0.10;;;;;;;;;;5063452;28;20063;-86
2022/08/07 12:30:41;;;;;;;0.08;0.08;;;;;;;;;;5029989;28;20056;-86
2022/08/07 12:33:17;;;;;;;0.00;0.00;;;;;;;;;;5054755;28;20040;-85
2022/08/07 12:35:44;;;;;;;0.00;0.00;;;;;;;;;;5067319;28;20045;-85
2022/08/07 12:38:12;;;;;;;0.00;0.00;;;;;;;;;;5052034;28;20045;-85
2022/08/07 12:40:42;;;;;;;0.00;0.00;;;;;;;;;;5069332;28;20414;-85
2022/08/07 12:43:21;;;;;;;0.20;0.20;;;;;;;;;;5065890;28;20033;-89
2022/08/07 12:46:06;;;;;;;0.10;0.10;;;;;;;;;;5051541;28;20043;-87
2022/08/07 12:48:51;;;;;;;0.82;0.80;;;;;;;;;;5054277;28;20051;-89
2022/08/07 12:51:18;;;;;;;0.10;0.10;;;;;;;;;;5047165;28;20040;-88
2022/08/07 12:53:50;;;;;;;0.08;0.08;;;;;;;;;;5053950;28;20503;-88
2022/08/07 12:56:31;;;;;;;0.10;0.10;;;;;;;;;;5045384;28;20079;-88
2022/08/07 12:58:59;;;;;;;0.10;0.10;;;;;;;;;;5050098;28;20058;-90
2022/08/07 13:01:25;;;;;;;0.10;0.10;;;;;;;;;;5068476;28;20046;-89
2022/08/07 13:04:10;;;;;;;0.10;0.10;;;;;;;;;;5050119;28;20037;-86
2022/08/07 13:06:49;;;;;;;0.00;0.00;;;;;;;;;;5048919;28;20400;-87
2022/08/07 13:09:35;;;;;;;0.10;0.10;;;;;;;;;;5053015;28;20040;-86
2022/08/07 13:12:15;;;;;;;0.00;0.00;;;;;;;;;;5047582;28;20482;-88
2022/08/07 13:15:02;;;;;;;0.00;0.00;;;;;;;;;;5053866;28;20043;-88
2022/08/07 13:17:50;;;;;;;0.10;0.10;;;;;;;;;;5051217;28;20056;-87
2022/08/07 13:20:50;;;;;;;0.00;0.00;;;;;;;;;;5050347;28;20393;-88
2022/08/07 13:23:29;;;;;;;0.10;0.10;;;;;;;;;;5073633;28;20040;-88
2022/08/07 13:26:06;;;;;;;0.10;0.10;;;;;;;;;;5058792;28;20040;-86
2022/08/07 13:29:06;;;;;;;0.10;0.10;;;;;;;;;;5053642;28;20040;-88
2022/08/07 13:31:50;;;;;;;0.10;0.10;;;;;;;;;;5051990;28;20082;-87
2022/08/07 13:34:16;;;;;;;0.00;0.00;;;;;;;;;;5056462;28;20043;-87
2022/08/07 13:36:54;;;;;;;0.00;0.00;;;;;;;;;;5058798;28;20048;-89
2022/08/07 13:39:26;;;;;;;0.03;0.03;;;;;;;;;;5055637;28;20038;-88
2022/08/07 13:41:53;;;;;;;0.00;0.00;;;;;;;;;;5058251;28;20685;-88
2022/08/07 13:44:21;;;;;;;0.00;0.00;;;;;;;;;;5061870;28;20032;-87
2022/08/07 13:46:53;;;;;;;0.00;0.00;;;;;;;;;;5075744;28;20138;-87
2022/08/07 13:49:47;;;;;;;0.10;0.10;;;;;;;;;;5044186;28;20401;-88
2022/08/07 13:52:15;;;;;;;0.00;0.00;;;;;;;;;;5060166;28;20477;-87
2022/08/07 13:54:46;;;;;;;0.10;0.10;;;;;;;;;;5055051;28;20120;-88
2022/08/07 13:57:26;;;;;;;0.05;0.05;;;;;;;;;;5058816;28;20040;-88
2022/08/07 14:03:10;;;;;;;0.05;0.05;;;;;;;;;;5077601;28;20520;-87
2022/08/07 14:05:47;;;;;;;0.10;0.10;;;;;;;;;;5050275;28;20048;-87
2022/08/07 14:08:14;;;;;;;0.10;0.10;;;;;;;;;;5051629;28;20050;-87
2022/08/07 14:10:42;;;;;;;0.05;0.05;;;;;;;;;;5056009;28;20047;-87
2022/08/07 14:13:13;;;;;;;0.00;0.00;;;;;;;;;;5051591;28;20075;-88
2022/08/07 14:15:42;;;;;;;0.20;0.20;;;;;;;;;;5054644;28;20147;-87
2022/08/07 14:18:15;;;;;;;0.10;0.10;;;;;;;;;;5058101;28;20040;-88
2022/08/07 14:20:45;;;;;;;0.00;0.00;;;;;;;;;;5050105;28;20233;-87
2022/08/07 14:23:33;;;;;;;0.00;0.00;;;;;;;;;;5062043;28;20039;-86
2022/08/07 14:26:09;;;;;;;0.00;0.00;;;;;;;;;;5054351;28;20043;-87
2022/08/07 14:28:44;;;;;;;0.10;0.10;;;;;;;;;;5062051;28;20067;-85
2022/08/07 14:31:11;;;;;;;0.00;0.00;;;;;;;;;;5074241;28;20044;-86
2022/08/07 14:33:39;;;;;;;0.03;0.03;;;;;;;;;;5058297;28;20086;-86
2022/08/07 14:36:07;;;;;;;0.00;0.00;;;;;;;;;;5056440;28;20051;-86
2022/08/07 14:38:34;;;;;;;0.15;0.15;;;;;;;;;;5057881;28;20036;-86
2022/08/07 14:41:19;;;;;;;0.08;0.08;;;;;;;;;;5060615;28;20485;-86
2022/08/07 14:43:46;;;;;;;0.00;0.00;;;;;;;;;;5063205;28;20037;-85
2022/08/07 14:46:16;;;;;;;0.00;0.00;;;;;;;;;;5064329;28;20458;-86
2022/08/07 14:48:45;;;;;;;0.00;0.00;;;;;;;;;;5051175;28;20047;-85
2022/08/07 14:51:12;;;;;;;0.00;0.00;;;;;;;;;;5049688;28;20040;-86
2022/08/07 14:53:40;;;;;;;0.00;0.00;;;;;;;;;;5049158;28;20048;-87
2022/08/07 14:56:07;;;;;;;0.10;0.10;;;;;;;;;;5050667;28;20046;-87
2022/08/07 14:58:36;;;;;;;0.10;0.10;;;;;;;;;;5046854;28;20043;-85
2022/08/07 15:01:04;;;;;;;0.00;0.00;;;;;;;;;;5047196;28;20032;-86
2022/08/07 15:03:32;;;;;;;0.10;0.10;;;;;;;;;;5048820;28;20040;-87
2022/08/07 15:05:58;;;;;;;0.00;0.00;;;;;;;;;;5045517;28;20153;-87
2022/08/07 15:08:29;;;;;;;0.00;0.00;;;;;;;;;;5053182;28;20122;-86
2022/08/07 15:10:57;;;;;;;0.00;0.00;;;;;;;;;;5051388;28;20036;-86
2022/08/07 15:13:24;;;;;;;0.00;0.00;;;;;;;;;;5052343;28;20037;-85
2022/08/07 15:15:52;;;;;;;0.05;0.05;;;;;;;;;;5047609;28;20174;-87
2022/08/07 15:18:28;;;;;;;0.10;0.10;;;;;;;;;;5048968;28;20458;-86
2022/08/07 15:20:57;;;;;;;0.03;0.03;;;;;;;;;;5044458;28;20037;-86